Decoded Metar for KRBD (DALLAS/REDBIRD in TX, USA) (IATA:RBD) | Meteo·Mobile Aviation Weather
aviador You're here:

KRBD Decoded Metar

DALLAS/REDBIRD in TX, USA
Report Time2018-12-19 04:53:00
UTC Time2018-12-19 05:04:35
Flight Rules vfr VFR
Wind150° at 06 kt
W.Decomp.*RWY 13: 5.8 kt HW 1.5 kt RCW
RWY 17: 5.4 kt HW 2.6 kt LCW
W.Rank150° ranks 4
Current wind is below 150° avg. (7.8)
Visibility9999 m
Phenomena:N/A
Clouds:N/A
Expected CloudBase > 1,200 ft AGL from Temp-Dew spread
CeilingNone
Temp10°C (ISA -4)
Dew Point07°C (82% RH)
AAT7.2°C
QNH1015 hPa
Density Alt299 ft
Elevation666 ft
Report Wrong Elevation
Raw Report
KRBD 190453Z AUTO 15006KT 10SM 10/07 A2998 RMK AO2 SLP151
T01000067 $=

Extra information for KRBD:More info

Metar Taf Metar & Taf Last 4 Metars F.Rules Stats Wind Profile Meteogram Temp Stats Airport Information Weather charts Add Link Nearby VenuesMetar ALERT Operation Metar Decoded Social comments

AIRNAV info for KRBD